Time;durP1;ratioP1;P1;durP2;ratioP2;P2;SDS_P1;SDS_P2;PMS_P1;PMS_P2;Temp;Humidity;BMP_temperature;BMP_pressure;BME280_temperature;BME280_humidity;BME280_pressure;Samples;Min_cycle;Max_cycle;Signal;HPM_P1;HPM_P2
2021/01/26 00:00:54;;;;;;;15.27;9.02;;;77.70;2227.20;;;;;;5030670;28;20039;-49
2021/01/26 00:03:20;;;;;;;9.68;5.88;;;77.60;2227.20;;;;;;5030480;28;20022;-50
2021/01/26 00:05:47;;;;;;;15.13;10.77;;;77.40;2227.20;;;;;;5030856;28;20041;-57
2021/01/26 00:08:13;;;;;;;17.85;11.18;;;77.50;2227.20;;;;;;5030186;28;20021;-58
2021/01/26 00:10:39;;;;;;;41.38;23.13;;;77.40;2227.20;;;;;;5030689;28;20052;-49
2021/01/26 00:13:06;;;;;;;11.48;5.53;;;77.60;2227.20;;;;;;5030788;28;20105;-50
2021/01/26 00:15:32;;;;;;;8.35;5.53;;;77.70;2227.20;;;;;;5030459;28;20084;-50
2021/01/26 00:17:58;;;;;;;10.85;6.78;;;77.60;2227.20;;;;;;5030837;28;20964;-49
2021/01/26 00:20:25;;;;;;;14.15;12.63;;;77.60;2227.20;;;;;;5030643;28;20029;-49
2021/01/26 00:22:51;;;;;;;12.48;8.38;;;77.50;2227.20;;;;;;5030055;28;20115;-49
2021/01/26 00:25:25;;;;;;;9.23;7.47;;;77.50;2227.20;;;;;;5030233;28;20096;-56
2021/01/26 00:27:51;;;;;;;8.40;5.88;;;77.50;2227.20;;;;;;5030327;28;20480;-49
2021/01/26 00:30:24;;;;;;;9.27;5.78;;;77.40;2227.20;;;;;;5030375;28;20033;-49
2021/01/26 00:32:49;;;;;;;11.82;8.80;;;77.40;2227.20;;;;;;5030031;28;20061;-50
2021/01/26 00:35:18;;;;;;;9.43;6.05;;;77.40;2227.20;;;;;;5030286;28;20025;-58
2021/01/26 00:37:43;;;;;;;9.52;6.32;;;77.40;2227.20;;;;;;5030033;28;20033;-49
2021/01/26 00:40:10;;;;;;;8.75;6.20;;;77.60;2227.20;;;;;;5030255;28;20032;-49
2021/01/26 00:42:35;;;;;;;15.55;10.43;;;77.50;2227.20;;;;;;5030281;28;20372;-57
2021/01/26 00:45:04;;;;;;;11.90;7.40;;;77.60;2227.20;;;;;;5030188;28;20040;-49
2021/01/26 00:47:30;;;;;;;13.60;8.50;;;77.40;2227.20;;;;;;5029636;28;20064;-53
2021/01/26 00:49:55;;;;;;;8.15;5.20;;;77.30;2227.20;;;;;;5030207;28;20061;-49
2021/01/26 00:52:21;;;;;;;8.75;5.20;;;77.50;2227.20;;;;;;5029670;28;20029;-57
2021/01/26 00:54:47;;;;;;;6.88;5.22;;;77.40;2227.20;;;;;;5030083;28;20033;-49
2021/01/26 00:57:18;;;;;;;14.50;10.27;;;77.50;2227.20;;;;;;5029934;28;20299;-52
2021/01/26 00:59:47;;;;;;;11.65;7.10;;;77.40;2227.20;;;;;;5030121;28;20030;-49
2021/01/26 01:02:14;;;;;;;9.35;7.13;;;77.60;2227.20;;;;;;5030045;28;20479;-49
2021/01/26 01:04:40;;;;;;;8.88;5.63;;;77.50;2227.20;;;;;;5029848;28;20053;-49
2021/01/26 01:07:05;;;;;;;10.98;7.32;;;77.50;2227.20;;;;;;5030051;28;20392;-49
2021/01/26 01:09:31;;;;;;;26.25;23.85;;;77.30;2227.20;;;;;;5030017;28;20026;-49
2021/01/26 01:11:57;;;;;;;9.70;6.30;;;77.50;2227.20;;;;;;5029934;28;20034;-49
2021/01/26 01:14:23;;;;;;;12.27;10.00;;;77.50;2227.20;;;;;;5029636;28;20198;-49
2021/01/26 01:16:48;;;;;;;13.32;11.25;;;77.50;2227.20;;;;;;5029814;28;20037;-49
2021/01/26 01:19:15;;;;;;;13.52;12.18;;;77.50;2227.20;;;;;;5029930;28;20033;-49
2021/01/26 01:21:40;;;;;;;8.07;6.38;;;77.50;2227.20;;;;;;5029560;28;20460;-50
2021/01/26 01:24:06;;;;;;;11.27;6.90;;;77.50;2227.20;;;;;;5029848;28;20036;-50
2021/01/26 01:26:33;;;;;;;10.38;6.53;;;77.40;2227.20;;;;;;5029811;28;20041;-50
2021/01/26 01:28:59;;;;;;;10.13;8.90;;;77.40;2227.20;;;;;;5029758;28;20079;-50
2021/01/26 01:31:24;;;;;;;10.27;7.50;;;77.30;2227.20;;;;;;5029762;28;20029;-57
2021/01/26 01:33:50;;;;;;;11.43;9.00;;;77.40;2227.20;;;;;;5029446;28;20435;-49
2021/01/26 01:36:17;;;;;;;11.05;6.35;;;77.50;2227.20;;;;;;5029769;28;20036;-49
2021/01/26 01:38:43;;;;;;;12.25;6.90;;;77.40;2227.20;;;;;;5029412;28;20040;-49
2021/01/26 01:41:09;;;;;;;10.55;6.07;;;77.40;2227.20;;;;;;5029613;28;20033;-49
2021/01/26 01:43:34;;;;;;;8.75;5.82;;;77.30;2227.20;;;;;;5029660;28;20095;-49
2021/01/26 01:46:02;;;;;;;8.05;5.68;;;77.40;2227.20;;;;;;5029603;28;20045;-50
2021/01/26 01:48:33;;;;;;;10.73;6.50;;;77.20;2227.20;;;;;;5029783;28;20071;-49
2021/01/26 01:51:11;;;;;;;14.18;8.73;;;77.20;2227.20;;;;;;5029598;28;20076;-49
2021/01/26 01:53:43;;;;;;;14.05;7.78;;;77.30;2227.20;;;;;;5029427;28;20479;-49
2021/01/26 01:56:35;;;;;;;10.20;6.85;;;77.20;2227.20;;;;;;5029593;28;20030;-50
2021/01/26 01:59:19;;;;;;;16.27;9.85;;;77.20;2227.20;;;;;;5029560;28;20033;-49
2021/01/26 02:01:46;;;;;;;23.55;13.70;;;77.40;2227.20;;;;;;5032997;28;20029;-49
2021/01/26 02:04:15;;;;;;;21.40;12.15;;;77.40;2227.20;;;;;;5032934;28;20455;-53
2021/01/26 02:06:43;;;;;;;38.83;15.88;;;77.30;2227.20;;;;;;5032830;28;20392;-49
2021/01/26 02:09:14;;;;;;;31.40;16.45;;;77.30;2227.20;;;;;;5032695;28;20021;-50
2021/01/26 02:11:39;;;;;;;25.42;18.80;;;77.30;2227.20;;;;;;5032753;28;20025;-56
2021/01/26 02:14:05;;;;;;;20.17;16.67;;;77.30;2227.20;;;;;;5032820;28;20033;-54
2021/01/26 02:16:31;;;;;;;15.18;10.65;;;77.30;2227.20;;;;;;5032740;28;20488;-49
2021/01/26 02:19:15;;;;;;;16.23;8.90;;;77.40;2227.20;;;;;;5031601;28;20384;-49
2021/01/26 02:22:16;;;;;;;12.35;8.38;;;77.30;2227.20;;;;;;5032650;28;20028;-49
2021/01/26 02:25:06;;;;;;;13.23;8.20;;;77.30;2227.20;;;;;;5032184;28;20025;-49
2021/01/26 02:27:51;;;;;;;14.25;11.60;;;77.30;2227.20;;;;;;5032486;28;20022;-49
2021/01/26 02:30:31;;;;;;;10.98;7.75;;;77.50;2227.20;;;;;;5032707;28;20503;-48
2021/01/26 02:33:19;;;;;;;13.88;8.00;;;77.40;2227.20;;;;;;5032314;28;20095;-49
2021/01/26 02:35:53;;;;;;;9.68;7.85;;;77.40;2227.20;;;;;;5032395;28;20479;-49
2021/01/26 02:38:50;;;;;;;7.07;5.20;;;77.50;2227.20;;;;;;5032097;28;20072;-50
2021/01/26 02:41:21;;;;;;;7.82;4.60;;;77.60;2227.20;;;;;;5032284;28;20029;-49
2021/01/26 02:43:52;;;;;;;10.82;7.10;;;77.70;2227.20;;;;;;5032205;28;20388;-49
2021/01/26 02:46:39;;;;;;;8.43;5.53;;;77.60;2227.20;;;;;;5032260;28;20034;-49
2021/01/26 02:49:16;;;;;;;11.68;7.10;;;77.50;2227.20;;;;;;5032074;28;20021;-49
2021/01/26 02:51:54;;;;;;;11.00;7.15;;;77.60;2227.20;;;;;;5031958;28;20032;-56
2021/01/26 02:54:22;;;;;;;10.98;6.22;;;77.50;2227.20;;;;;;5032005;28;20037;-49
2021/01/26 02:57:01;;;;;;;9.90;6.75;;;77.40;2227.20;;;;;;5032121;28;20022;-49
2021/01/26 02:59:33;;;;;;;10.90;7.90;;;77.30;2227.20;;;;;;5032131;28;20156;-47
2021/01/26 03:02:11;;;;;;;16.88;13.43;;;77.30;2227.20;;;;;;5031857;28;20037;-49
2021/01/26 03:04:56;;;;;;;10.75;7.60;;;77.30;2227.20;;;;;;5031795;28;20128;-49
2021/01/26 03:07:25;;;;;;;12.27;7.88;;;77.40;2227.20;;;;;;5031670;28;20096;-49
2021/01/26 03:09:56;;;;;;;11.73;7.75;;;77.20;2227.20;;;;;;5031613;28;20049;-49
2021/01/26 03:12:28;;;;;;;11.00;7.22;;;77.30;2227.20;;;;;;5031132;28;20025;-50
2021/01/26 03:15:06;;;;;;;10.63;7.80;;;77.20;2227.20;;;;;;5031834;28;20033;-50
2021/01/26 03:17:45;;;;;;;9.13;6.80;;;77.30;2227.20;;;;;;5031501;28;20379;-49
2021/01/26 03:20:17;;;;;;;7.50;5.53;;;77.40;2227.20;;;;;;5031405;28;20100;-49
2021/01/26 03:22:54;;;;;;;8.70;5.88;;;77.40;2227.20;;;;;;5031557;28;20030;-49
2021/01/26 03:25:26;;;;;;;9.00;6.22;;;77.40;2227.20;;;;;;5031196;28;20033;-49
2021/01/26 03:27:57;;;;;;;9.15;6.35;;;77.50;2227.20;;;;;;5031252;28;20443;-49
2021/01/26 03:30:28;;;;;;;9.18;5.57;;;77.50;2227.20;;;;;;5031235;28;20353;-49
2021/01/26 03:33:04;;;;;;;8.90;5.57;;;77.60;2227.20;;;;;;5031250;28;20050;-48
2021/01/26 03:35:29;;;;;;;6.80;4.80;;;77.70;2227.20;;;;;;5031115;28;20053;-49
2021/01/26 03:38:02;;;;;;;7.70;5.35;;;77.60;2227.20;;;;;;5031223;28;20053;-49
2021/01/26 03:40:27;;;;;;;11.77;7.40;;;77.60;2227.20;;;;;;5031000;28;20115;-49
2021/01/26 03:42:53;;;;;;;8.38;5.93;;;77.60;2227.20;;;;;;5031469;28;20113;-49
2021/01/26 03:45:19;;;;;;;11.30;7.05;;;77.70;2227.20;;;;;;5030936;28;20033;-49
2021/01/26 03:48:08;;;;;;;12.68;7.43;;;77.60;2227.20;;;;;;5031014;28;20092;-49
2021/01/26 03:50:39;;;;;;;10.57;7.65;;;77.40;2227.20;;;;;;5030993;28;20040;-48
2021/01/26 03:53:24;;;;;;;13.52;10.10;;;77.40;2227.20;;;;;;5030872;28;20029;-50
2021/01/26 03:56:16;;;;;;;14.82;9.77;;;77.50;2227.20;;;;;;5030613;28;20025;-49
2021/01/26 03:58:45;;;;;;;26.33;20.67;;;77.50;2227.20;;;;;;5030787;28;20021;-49
2021/01/26 04:01:25;;;;;;;19.45;15.77;;;77.60;2227.20;;;;;;5030676;28;20028;-49
2021/01/26 04:03:57;;;;;;;11.55;9.73;;;77.50;2227.20;;;;;;5030562;28;20044;-51
2021/01/26 04:06:38;;;;;;;10.48;7.55;;;77.50;2227.20;;;;;;5030647;28;20041;-49
2021/01/26 04:09:18;;;;;;;9.85;7.45;;;77.40;2227.20;;;;;;5030574;28;20025;-51
2021/01/26 04:11:56;;;;;;;10.23;6.65;;;77.40;2227.20;;;;;;5030538;28;20034;-49
2021/01/26 04:14:31;;;;;;;9.55;7.20;;;77.40;2227.20;;;;;;5030842;28;20222;-49
2021/01/26 04:17:03;;;;;;;9.32;6.20;;;77.20;2227.20;;;;;;5030753;28;20022;-49
2021/01/26 04:19:33;;;;;;;8.10;5.78;;;77.10;2227.20;;;;;;5030547;28;20044;-49
2021/01/26 04:22:00;;;;;;;8.85;6.50;;;77.10;2227.20;;;;;;5029928;28;20029;-49
2021/01/26 04:24:35;;;;;;;8.38;5.88;;;77.10;2227.20;;;;;;5030096;28;20033;-49
2021/01/26 04:27:05;;;;;;;7.65;5.13;;;77.00;2227.20;;;;;;5030367;28;20487;-49
2021/01/26 04:29:31;;;;;;;8.18;6.18;;;76.90;2227.20;;;;;;5030497;28;20053;-49
2021/01/26 04:31:57;;;;;;;8.82;6.72;;;76.90;2227.20;;;;;;5030448;28;20484;-54
2021/01/26 04:34:23;;;;;;;9.18;5.88;;;77.00;2227.20;;;;;;5029967;28;20069;-48
2021/01/26 04:36:48;;;;;;;11.63;8.35;;;76.90;2227.20;;;;;;5030208;28;20033;-49
2021/01/26 04:39:14;;;;;;;13.05;8.13;;;76.90;2227.20;;;;;;5030115;28;20029;-54
2021/01/26 04:41:58;;;;;;;15.43;11.75;;;76.80;2227.20;;;;;;5030082;28;20033;-49
2021/01/26 04:44:48;;;;;;;14.00;9.40;;;52.10;2227.20;;;;;;5030339;28;20122;-49
2021/01/26 04:47:38;;;;;;;15.57;10.88;;;76.80;2227.20;;;;;;5030211;28;20034;-50
2021/01/26 04:50:32;;;;;;;12.30;7.68;;;76.90;2227.20;;;;;;5030242;28;20033;-49
2021/01/26 04:53:28;;;;;;;16.15;12.30;;;76.90;2227.20;;;;;;5030532;28;20068;-49
2021/01/26 04:56:17;;;;;;;12.35;7.82;;;76.80;2227.20;;;;;;5030254;28;20060;-49
2021/01/26 04:59:11;;;;;;;16.98;15.27;;;76.90;2227.20;;;;;;5026844;28;20034;-51
2021/01/26 05:01:56;;;;;;;19.48;16.33;;;76.90;2227.20;;;;;;5029992;28;20068;-49
2021/01/26 05:04:48;;;;;;;14.02;10.07;;;77.00;2227.20;;;;;;5029727;28;20034;-49
2021/01/26 05:07:17;;;;;;;12.40;9.02;;;76.90;2227.20;;;;;;5029728;28;20044;-48
2021/01/26 05:09:53;;;;;;;14.43;9.55;;;76.90;2227.20;;;;;;5029679;28;20021;-56
2021/01/26 05:12:20;;;;;;;16.45;12.63;;;76.80;2227.20;;;;;;5029652;28;20476;-49
2021/01/26 05:14:51;;;;;;;17.95;13.57;;;76.90;2227.20;;;;;;5030005;28;20029;-54
2021/01/26 05:17:32;;;;;;;13.30;10.10;;;76.80;2227.20;;;;;;5029920;28;20057;-55
2021/01/26 05:20:13;;;;;;;14.32;11.45;;;76.90;2227.20;;;;;;5030110;28;20026;-55
2021/01/26 05:22:58;;;;;;;11.85;8.00;;;77.00;2227.20;;;;;;5029774;28;20049;-49
2021/01/26 05:25:25;;;;;;;14.40;11.10;;;77.00;2227.20;;;;;;5029602;28;20475;-49
2021/01/26 05:27:51;;;;;;;13.07;8.52;;;77.00;2227.20;;;;;;5029756;28;20025;-56
2021/01/26 05:30:29;;;;;;;12.60;8.75;;;76.90;2227.20;;;;;;5029878;28;20028;-49
2021/01/26 05:32:57;;;;;;;10.30;7.93;;;76.90;2227.20;;;;;;5029483;28;20048;-55
2021/01/26 05:35:23;;;;;;;15.65;8.82;;;77.00;2227.20;;;;;;5033132;28;20042;-48
2021/01/26 05:37:52;;;;;;;16.48;13.95;;;77.10;2227.20;;;;;;5033398;28;20017;-49
2021/01/26 05:40:34;;;;;;;12.20;8.30;;;77.10;2227.20;;;;;;5033300;28;20018;-49
2021/01/26 05:43:02;;;;;;;12.18;8.63;;;77.10;2227.20;;;;;;5033534;28;20486;-49
2021/01/26 05:45:45;;;;;;;18.00;9.32;;;77.00;2227.20;;;;;;5033464;28;20068;-49
2021/01/26 05:48:16;;;;;;;14.07;7.95;;;76.90;2227.20;;;;;;5033105;28;20172;-50
2021/01/26 05:50:44;;;;;;;17.50;15.60;;;76.90;2227.20;;;;;;5033034;28;20131;-56
2021/01/26 05:53:21;;;;;;;11.70;7.55;;;76.90;2227.20;;;;;;5033155;28;20171;-49
2021/01/26 05:55:58;;;;;;;16.08;10.40;;;76.90;2227.20;;;;;;5033105;28;20036;-49
2021/01/26 05:58:28;;;;;;;12.40;8.38;;;76.90;2227.20;;;;;;5033201;28;20033;-49
2021/01/26 06:00:59;;;;;;;13.65;10.32;;;77.00;2227.20;;;;;;5033187;28;20067;-56
2021/01/26 06:03:26;;;;;;;12.85;8.07;;;76.80;2227.20;;;;;;5032869;28;20495;-49
2021/01/26 06:06:13;;;;;;;12.00;9.18;;;76.80;2227.20;;;;;;5032972;28;20033;-54
2021/01/26 06:09:08;;;;;;;12.60;10.75;;;76.90;2227.20;;;;;;5032828;28;20026;-49
2021/01/26 06:11:34;;;;;;;11.48;9.30;;;52.00;2227.20;;;;;;5030614;28;20169;-49
2021/01/26 06:14:13;;;;;;;14.65;11.88;;;52.00;2227.20;;;;;;5030579;28;20156;-48
2021/01/26 06:16:38;;;;;;;17.63;11.90;;;52.00;2227.20;;;;;;5030532;28;20040;-49
2021/01/26 06:19:05;;;;;;;77.85;40.50;;;51.90;2227.20;;;;;;5030576;28;20025;-49
2021/01/26 06:21:50;;;;;;;58.22;31.92;;;51.80;2227.20;;;;;;5030363;28;20468;-50
2021/01/26 06:24:17;;;;;;;26.52;18.20;;;51.80;2227.20;;;;;;5030521;28;20108;-50
2021/01/26 06:26:57;;;;;;;19.58;11.38;;;51.80;2227.20;;;;;;5030132;28;20033;-55
2021/01/26 06:29:52;;;;;;;22.50;14.73;;;51.90;2227.20;;;;;;5030141;28;20052;-49
2021/01/26 06:32:33;;;;;;;38.22;34.22;;;52.00;2227.20;;;;;;5008737;28;20034;-49
2021/01/26 06:35:30;;;;;;;25.33;22.48;;;51.90;2227.20;;;;;;5030317;28;20484;-49
2021/01/26 06:38:25;;;;;;;17.17;11.25;;;51.80;2227.20;;;;;;5030285;28;20108;-52
2021/01/26 06:41:32;;;;;;;19.88;17.42;;;51.90;2227.20;;;;;;5029873;28;20038;-52
2021/01/26 06:44:19;;;;;;;17.92;10.90;;;52.10;2227.20;;;;;;4971033;28;20481;-56
2021/01/26 06:47:06;;;;;;;20.00;12.18;;;52.00;2227.20;;;;;;4970583;28;20085;-49
2021/01/26 06:49:45;;;;;;;17.48;10.77;;;52.00;2227.20;;;;;;4990627;28;20174;-49
2021/01/26 06:52:14;;;;;;;39.53;34.08;;;51.90;2227.20;;;;;;4990565;28;20073;-54
2021/01/26 06:54:58;;;;;;;17.23;12.38;;;52.00;2227.20;;;;;;4990362;28;20555;-55
2021/01/26 06:58:00;;;;;;;19.52;14.00;;;52.10;2227.20;;;;;;4990395;28;20140;-49
2021/01/26 07:00:50;;;;;;;19.92;13.55;;;51.90;2227.20;;;;;;4990593;28;20473;-50
2021/01/26 07:03:30;;;;;;;19.10;12.02;;;51.80;2227.20;;;;;;4990402;28;20034;-50
2021/01/26 07:06:02;;;;;;;19.85;13.95;;;51.80;2227.20;;;;;;4990089;28;20046;-54
2021/01/26 07:08:46;;;;;;;24.73;16.60;;;51.70;2227.20;;;;;;4990301;28;20532;-51
2021/01/26 07:11:17;;;;;;;19.83;13.75;;;51.70;2227.20;;;;;;4989893;28;20041;-58
2021/01/26 07:13:57;;;;;;;28.65;19.52;;;51.70;2227.20;;;;;;4989972;28;20123;-49
2021/01/26 07:16:44;;;;;;;25.52;16.08;;;51.80;2227.20;;;;;;4990025;28;20031;-50
2021/01/26 07:19:34;;;;;;;20.92;16.30;;;76.80;2227.20;;;;;;4990048;28;20081;-59
2021/01/26 07:22:36;;;;;;;82.10;40.22;;;77.10;2227.20;;;;;;5031478;28;20030;-61
2021/01/26 07:25:17;;;;;;;28.13;15.98;;;77.30;2227.20;;;;;;5031029;28;20040;-52
2021/01/26 07:27:56;;;;;;;20.95;13.10;;;77.10;2227.20;;;;;;5031390;28;20159;-63
2021/01/26 07:30:43;;;;;;;36.95;25.20;;;76.90;2227.20;;;;;;5025453;28;20032;-52
2021/01/26 07:33:14;;;;;;;27.90;19.10;;;76.90;2227.20;;;;;;5030730;28;20045;-51
2021/01/26 07:35:52;;;;;;;66.05;37.60;;;76.90;2227.20;;;;;;5030902;28;20044;-49
2021/01/26 07:38:25;;;;;;;25.75;17.63;;;76.90;2227.20;;;;;;5031133;28;20025;-50
2021/01/26 07:41:14;;;;;;;24.38;16.40;;;77.00;2227.20;;;;;;5030697;28;20031;-51
2021/01/26 07:44:20;;;;;;;32.00;20.98;;;76.90;2227.20;;;;;;5041251;28;20033;-51
2021/01/26 07:46:59;;;;;;;57.70;31.00;;;77.00;2227.20;;;;;;5050901;28;20041;-51
2021/01/26 07:49:48;;;;;;;26.92;16.67;;;77.00;2227.20;;;;;;5050853;28;20032;-50
2021/01/26 07:52:17;;;;;;;17.63;12.68;;;77.20;2227.20;;;;;;5050462;28;20108;-54
2021/01/26 07:54:55;;;;;;;22.45;15.32;;;77.40;2227.20;;;;;;5050503;28;20121;-51
2021/01/26 07:57:28;;;;;;;30.90;20.27;;;102.50;2176.00;;;;;;5050305;28;20032;-50
2021/01/26 07:59:58;;;;;;;18.95;12.57;;;102.80;2124.80;;;;;;5049503;28;20025;-51
2021/01/26 08:02:31;;;;;;;65.30;42.83;;;103.30;2073.60;;;;;;5050200;28;20036;-51
2021/01/26 08:04:57;;;;;;;24.80;18.75;;;153.70;1945.60;;;;;;5050345;28;20533;-51
2021/01/26 08:07:27;;;;;;;37.10;24.05;;;179.50;1817.60;;;;;;5049667;28;20028;-59
2021/01/26 08:09:54;;;;;;;18.42;13.45;;;179.50;1792.00;;;;;;5050188;28;20021;-52
2021/01/26 08:12:38;;;;;;;19.02;12.88;;;179.40;1792.00;;;;;;5049924;28;20056;-51
2021/01/26 08:15:09;;;;;;;;;;;179.40;1792.00;;;;;;5050099;28;20380;-51
2021/01/26 08:17:36;;;;;;;18.88;12.10;;;205.30;1638.40;;;;;;5050108;28;19951;-52
2021/01/26 08:20:07;;;;;;;17.90;13.75;;;230.40;1587.20;;;;;;5050092;28;20025;-54
2021/01/26 08:22:34;;;;;;;22.35;16.83;;;205.20;1638.40;;;;;;5049432;28;20020;-57
2021/01/26 08:25:25;;;;;;;19.95;13.93;;;180.10;1664.00;;;;;;5034805;28;20487;-52
2021/01/26 08:27:59;;;;;;;20.48;15.65;;;180.10;1689.60;;;;;;5026836;28;20029;-55
2021/01/26 08:30:49;;;;;;;19.98;15.52;;;179.90;1715.20;;;;;;5027560;28;20038;-50
2021/01/26 08:33:24;;;;;;;19.60;15.10;;;179.90;1740.80;;;;;;5027585;28;20073;-52
2021/01/26 08:36:07;;;;;;;18.52;13.45;;;179.40;1766.40;;;;;;5026947;28;20065;-51
2021/01/26 08:38:51;;;;;;;19.38;12.80;;;179.40;1766.40;;;;;;5027345;28;20064;-52
2021/01/26 08:41:45;;;;;;;20.25;12.95;;;179.30;1792.00;;;;;;5035334;28;20025;-50
2021/01/26 08:44:22;;;;;;;15.68;12.13;;;154.50;1792.00;;;;;;4948803;29;20144;-51
2021/01/26 08:46:50;;;;;;;16.73;12.38;;;154.30;1843.20;;;;;;4949605;29;20494;-57
2021/01/26 08:49:24;;;;;;;16.92;10.50;;;154.30;1843.20;;;;;;4949653;29;20127;-50
2021/01/26 08:51:51;;;;;;;15.45;11.75;;;154.20;1817.60;;;;;;4948887;29;20371;-51
2021/01/26 08:54:41;;;;;;;19.52;12.45;;;154.20;1843.20;;;;;;4949579;29;20051;-51
2021/01/26 08:57:20;;;;;;;16.33;11.60;;;154.40;1817.60;;;;;;4938907;29;20082;-52
2021/01/26 08:59:45;;;;;;;17.88;12.38;;;154.40;1817.60;;;;;;4932929;29;20039;-53
2021/01/26 09:02:33;;;;;;;18.42;14.00;;;179.30;1792.00;;;;;;4934093;29;20028;-59
2021/01/26 09:04:58;;;;;;;16.85;13.32;;;179.60;1740.80;;;;;;4945182;28;20043;-50
2021/01/26 09:07:52;;;;;;;13.82;10.25;;;180.10;1689.60;;;;;;4954295;28;20042;-50
2021/01/26 09:10:25;;;;;;;26.33;22.65;;;205.20;1638.40;;;;;;4952113;28;20039;-60
2021/01/26 09:13:11;;;;;;;19.08;14.07;;;230.40;1561.60;;;;;;4952900;29;20031;-51
2021/01/26 09:15:45;;;;;;;18.90;13.80;;;230.70;1536.00;;;;;;4953291;29;20114;-50
2021/01/26 09:18:18;;;;;;;15.77;11.68;;;230.60;1561.60;;;;;;4953173;29;20066;-50
2021/01/26 09:20:45;;;;;;;18.80;12.57;;;205.70;1561.60;;;;;;4980814;28;20095;-51
2021/01/26 09:23:11;;;;;;;17.55;12.55;;;230.40;1587.20;;;;;;5033433;28;20029;-51
2021/01/26 09:25:44;;;;;;;17.42;11.18;;;205.50;1612.80;;;;;;5033705;28;20037;-50
2021/01/26 09:28:13;;;;;;;16.58;12.70;;;205.30;1587.20;;;;;;5032512;28;20025;-54
2021/01/26 09:30:41;;;;;;;72.80;51.05;;;205.10;1638.40;;;;;;5033229;28;20041;-53
2021/01/26 09:33:10;;;;;;;17.52;11.50;;;205.10;1638.40;;;;;;5032130;28;20059;-51
2021/01/26 09:35:43;;;;;;;16.58;12.48;;;180.00;1664.00;;;;;;5047014;28;20041;-55
2021/01/26 09:38:20;;;;;;;17.52;13.48;;;179.70;1715.20;;;;;;5047236;28;20025;-51
2021/01/26 09:41:01;;;;;;;16.75;13.40;;;179.80;1715.20;;;;;;5046540;28;20029;-51
2021/01/26 09:43:33;;;;;;;18.10;12.25;;;179.70;1715.20;;;;;;5045565;28;20032;-51
2021/01/26 09:46:04;;;;;;;19.83;12.32;;;179.40;1740.80;;;;;;5045301;28;20051;-50
2021/01/26 09:48:36;;;;;;;17.50;12.65;;;179.40;1740.80;;;;;;5045294;28;20026;-51
2021/01/26 09:51:22;;;;;;;18.92;11.60;;;154.30;1792.00;;;;;;5034621;28;20021;-54
2021/01/26 09:54:01;;;;;;;119.80;59.67;;;154.30;1792.00;;;;;;5035002;28;20427;-52
2021/01/26 09:56:27;;;;;;;17.70;12.48;;;154.30;1817.60;;;;;;5039896;28;20036;-55
2021/01/26 09:58:53;;;;;;;20.02;12.98;;;154.30;1792.00;;;;;;5038801;28;20383;-50
2021/01/26 10:01:21;;;;;;;24.35;17.10;;;179.40;1766.40;;;;;;5037497;28;20096;-50
2021/01/26 10:03:48;;;;;;;24.42;17.42;;;179.20;1766.40;;;;;;5039763;28;20029;-50
2021/01/26 10:06:17;;;;;;;23.08;17.88;;;154.50;1792.00;;;;;;5040055;28;20042;-55
2021/01/26 10:08:43;;;;;;;18.23;13.05;;;179.40;1715.20;;;;;;5038856;28;20030;-59
2021/01/26 10:11:17;;;;;;;19.88;13.07;;;179.60;1740.80;;;;;;5039274;28;20037;-52
2021/01/26 10:13:45;;;;;;;20.67;13.82;;;179.60;1715.20;;;;;;5039574;28;20052;-51
2021/01/26 10:16:35;;;;;;;20.55;14.02;;;179.70;1715.20;;;;;;5039417;28;20025;-50
2021/01/26 10:19:21;;;;;;;21.05;14.63;;;179.90;1689.60;;;;;;5039525;28;20029;-57
2021/01/26 10:21:47;;;;;;;23.58;15.52;;;179.90;1715.20;;;;;;5038803;28;20037;-54
2021/01/26 10:24:34;;;;;;;19.27;13.70;;;179.50;1715.20;;;;;;5038795;28;20033;-52
2021/01/26 10:27:22;;;;;;;20.17;14.85;;;154.50;1766.40;;;;;;5038416;28;20021;-57
2021/01/26 10:29:48;;;;;;;20.05;14.10;;;154.50;1792.00;;;;;;5039532;28;20045;-50
2021/01/26 10:32:47;;;;;;;24.83;15.35;;;154.20;1817.60;;;;;;5038320;28;20036;-51
2021/01/26 10:35:24;;;;;;;22.02;14.98;;;154.40;1817.60;;;;;;5038594;28;20487;-54
2021/01/26 10:37:49;;;;;;;26.40;17.65;;;154.20;1792.00;;;;;;5039071;28;20033;-51
2021/01/26 10:40:27;;;;;;;25.88;17.77;;;154.20;1817.60;;;;;;5039090;28;20074;-50
2021/01/26 10:43:09;;;;;;;33.88;22.20;;;154.30;1792.00;;;;;;5038740;28;20364;-52
2021/01/26 10:45:49;;;;;;;49.35;30.10;;;154.40;1792.00;;;;;;5038166;28;20033;-55
2021/01/26 10:48:35;;;;;;;20.38;12.32;;;154.40;1792.00;;;;;;5038446;28;20013;-52
2021/01/26 10:51:29;;;;;;;46.70;29.35;;;154.10;1792.00;;;;;;5038799;28;20029;-53
2021/01/26 10:53:55;;;;;;;33.80;21.67;;;154.40;1792.00;;;;;;5037715;28;20029;-51
2021/01/26 10:56:21;;;;;;;34.05;22.85;;;154.20;1792.00;;;;;;5037689;28;20116;-51
2021/01/26 10:58:48;;;;;;;24.63;16.40;;;154.30;1740.80;;;;;;5038437;28;20029;-52
2021/01/26 11:01:19;;;;;;;21.73;14.02;;;154.30;1766.40;;;;;;5030620;28;20483;-52
2021/01/26 11:03:45;;;;;;;26.33;17.45;;;154.50;1766.40;;;;;;5034458;28;20426;-50
2021/01/26 11:06:11;;;;;;;43.65;27.60;;;179.40;1715.20;;;;;;5037364;28;20029;-52
2021/01/26 11:08:37;;;;;;;27.83;17.80;;;179.40;1715.20;;;;;;5038943;28;20028;-49
2021/01/26 11:11:03;;;;;;;23.15;14.63;;;179.20;1740.80;;;;;;5037684;28;20026;-54
2021/01/26 11:13:29;;;;;;;22.27;15.40;;;179.40;1715.20;;;;;;5037693;28;20120;-52
2021/01/26 11:15:55;;;;;;;23.73;16.40;;;179.40;1715.20;;;;;;5037867;28;20104;-51
2021/01/26 11:18:20;;;;;;;23.85;17.35;;;179.70;1689.60;;;;;;5043972;28;20137;-52
2021/01/26 11:20:47;;;;;;;30.75;20.65;;;179.50;1689.60;;;;;;5051624;28;20044;-51
2021/01/26 11:23:12;;;;;;;33.25;20.67;;;179.50;1689.60;;;;;;5050951;28;20060;-59
2021/01/26 11:25:39;;;;;;;24.92;15.27;;;179.60;1715.20;;;;;;5050644;28;20073;-51
2021/01/26 11:28:05;;;;;;;51.33;40.70;;;179.20;1689.60;;;;;;5051122;28;20504;-53
2021/01/26 11:30:31;;;;;;;19.55;14.30;;;154.50;1715.20;;;;;;5050552;28;20082;-52
2021/01/26 11:32:58;;;;;;;16.77;13.52;;;154.40;1740.80;;;;;;5049939;28;20144;-52
2021/01/26 11:35:26;;;;;;;19.20;12.40;;;154.20;1766.40;;;;;;5051078;28;20037;-56
2021/01/26 11:37:53;;;;;;;21.20;12.88;;;154.30;1740.80;;;;;;5050620;28;20040;-54
2021/01/26 11:40:20;;;;;;;25.10;18.48;;;154.10;1792.00;;;;;;5050695;28;20426;-52
2021/01/26 11:42:46;;;;;;;22.10;14.27;;;154.10;1766.40;;;;;;5050796;28;20032;-53
2021/01/26 11:45:16;;;;;;;25.02;16.88;;;154.20;1766.40;;;;;;5050398;28;20060;-52
2021/01/26 11:47:41;;;;;;;19.77;13.63;;;154.20;1766.40;;;;;;5049932;28;20459;-52
2021/01/26 11:50:10;;;;;;;19.77;13.88;;;154.20;1766.40;;;;;;5051014;28;20090;-52
2021/01/26 11:52:36;;;;;;;21.60;14.60;;;154.10;1766.40;;;;;;5050861;28;20035;-51
2021/01/26 11:55:05;;;;;;;22.02;14.32;;;154.00;1766.40;;;;;;5050031;28;20033;-50
2021/01/26 11:57:30;;;;;;;21.88;14.90;;;153.80;1766.40;;;;;;5050325;28;20052;-52
2021/01/26 11:59:58;;;;;;;22.25;15.40;;;154.00;1766.40;;;;;;5049849;28;20062;-51
2021/01/26 12:02:25;;;;;;;19.42;13.23;;;153.80;1766.40;;;;;;5049848;28;20086;-55
2021/01/26 12:04:50;;;;;;;18.92;14.73;;;153.80;1792.00;;;;;;5050166;28;20113;-51
2021/01/26 12:07:16;;;;;;;20.50;14.43;;;154.00;1766.40;;;;;;5050249;28;20115;-58
2021/01/26 12:09:42;;;;;;;19.67;14.27;;;154.30;1715.20;;;;;;5050099;28;20021;-53
2021/01/26 12:12:08;;;;;;;21.35;13.95;;;179.30;1689.60;;;;;;5050180;28;20103;-54
2021/01/26 12:14:34;;;;;;;20.80;14.57;;;179.40;1689.60;;;;;;5050116;28;20112;-53
2021/01/26 12:17:00;;;;;;;40.58;28.35;;;179.20;1689.60;;;;;;5049091;28;20025;-51
2021/01/26 12:19:25;;;;;;;20.30;13.15;;;154.50;1689.60;;;;;;5049982;28;20471;-52
2021/01/26 12:21:51;;;;;;;17.23;12.25;;;154.50;1715.20;;;;;;5050184;28;20073;-62
2021/01/26 12:24:17;;;;;;;19.83;11.80;;;154.10;1766.40;;;;;;5050108;28;20113;-52
2021/01/26 12:26:42;;;;;;;19.17;12.75;;;128.90;1792.00;;;;;;5049314;28;20128;-52
2021/01/26 12:29:08;;;;;;;20.52;13.05;;;128.60;1817.60;;;;;;5049739;28;20025;-52
2021/01/26 12:31:35;;;;;;;20.60;13.68;;;128.70;1843.20;;;;;;5049731;28;20450;-52
2021/01/26 12:34:00;;;;;;;23.08;15.45;;;128.40;1868.80;;;;;;5049271;28;20506;-53
2021/01/26 12:36:26;;;;;;;25.02;14.30;;;128.30;1894.40;;;;;;5050192;28;20060;-52
2021/01/26 12:38:52;;;;;;;20.20;14.52;;;103.20;1894.40;;;;;;5049773;28;20578;-59
2021/01/26 12:41:17;;;;;;;39.03;26.73;;;103.20;1920.00;;;;;;5049321;28;20060;-53